KSNA/SNA METAR and TAF weather

Enter ICAO airport designator
Station Type Date Time Source
KSNA METAR 2021/07/24 19:53 UTC NOAA

KSNA 241953Z 21008KT 190V260 10SM CLR 26/17 A3001 RMK AO2 SLP160 T02610172


Station Type Date Time Source
KSNA Decoded METAR 2021/07/24 19:53 UTC NOAA

SANTA ANA WAYNE ORANGE CTY, CA, United States (KSNA) 33-41N 117-52W 15M
Jul 24, 2021 - 03:53 PM EDT / 2021.07.24 1953 UTC
Wind: from the SSW (210 degrees) at 9 MPH (8 KT) (direction variable):0
Visibility: 10 mile(s):0
Sky conditions: clear
Temperature: 79.0 F (26.1 C)
Dew Point: 63.0 F (17.2 C)
Relative Humidity: 58%
Pressure (altimeter): 30.01 in. Hg (1016 hPa)
ob: KSNA 241953Z 21008KT 190V260 10SM CLR 26/17 A3001 RMK AO2 SLP160 T02610172
cycle: 20

Station Type Date Time Source
KSNA TAF 2021/07/24 18:30 UTC NOAA

TAF KSNA 241729Z 2418/2518 VRB04KT P6SM SCT020 BKN200
FM242100 21009KT P6SM BKN200
FM250200 VRB04KT P6SM FEW012 SCT120
FM250500 VRB04KT P6SM BKN010 OVC120

Example: see airport list